sensor_id;sensor_type;location;lat;lon;timestamp;temperature;humidity
65536;DHT22;52145;49.342;9.116;2023-02-28T00:02:14;0.20;99.90
65536;DHT22;52145;49.342;9.116;2023-02-28T00:04:39;0.10;99.90
65536;DHT22;52145;49.342;9.116;2023-02-28T00:07:05;0.10;99.90
65536;DHT22;52145;49.342;9.116;2023-02-28T00:09:30;0.00;99.90
65536;DHT22;52145;49.342;9.116;2023-02-28T00:11:56;0.00;99.90
65536;DHT22;52145;49.342;9.116;2023-02-28T00:14:21;0.00;99.90
65536;DHT22;52145;49.342;9.116;2023-02-28T00:16:47;0.00;99.90
65536;DHT22;52145;49.342;9.116;2023-02-28T00:19:12;0.00;99.90
65536;DHT22;52145;49.342;9.116;2023-02-28T00:21:38;-0.10;99.90
65536;DHT22;52145;49.342;9.116;2023-02-28T00:24:06;-0.10;99.90
65536;DHT22;52145;49.342;9.116;2023-02-28T00:26:32;0.00;99.90
65536;DHT22;52145;49.342;9.116;2023-02-28T00:28:57;-0.10;99.90
65536;DHT22;52145;49.342;9.116;2023-02-28T00:31:23;-0.10;99.90
65536;DHT22;52145;49.342;9.116;2023-02-28T00:33:49;-0.20;99.90
65536;DHT22;52145;49.342;9.116;2023-02-28T00:36:16;-0.20;99.90
65536;DHT22;52145;49.342;9.116;2023-02-28T00:38:41;-0.20;99.90
65536;DHT22;52145;49.342;9.116;2023-02-28T00:41:07;-0.10;99.90
65536;DHT22;52145;49.342;9.116;2023-02-28T00:43:35;-0.20;99.90
65536;DHT22;52145;49.342;9.116;2023-02-28T00:46:01;-0.20;99.90
65536;DHT22;52145;49.342;9.116;2023-02-28T00:48:27;-0.30;99.90
65536;DHT22;52145;49.342;9.116;2023-02-28T00:50:53;-0.30;99.90
65536;DHT22;52145;49.342;9.116;2023-02-28T00:53:18;-0.20;99.90
65536;DHT22;52145;49.342;9.116;2023-02-28T00:55:44;-0.20;99.90
65536;DHT22;52145;49.342;9.116;2023-02-28T00:58:09;-0.30;99.90
65536;DHT22;52145;49.342;9.116;2023-02-28T01:00:35;-0.30;99.90
65536;DHT22;52145;49.342;9.116;2023-02-28T01:03:00;-0.30;99.90
65536;DHT22;52145;49.342;9.116;2023-02-28T01:05:26;-0.40;99.90
65536;DHT22;52145;49.342;9.116;2023-02-28T01:11:42;-0.50;99.90
65536;DHT22;52145;49.342;9.116;2023-02-28T01:14:12;-0.40;99.90
65536;DHT22;52145;49.342;9.116;2023-02-28T01:16:38;-0.50;99.90
65536;DHT22;52145;49.342;9.116;2023-02-28T01:19:04;-0.50;99.90
65536;DHT22;52145;49.342;9.116;2023-02-28T01:21:29;-0.40;99.90
65536;DHT22;52145;49.342;9.116;2023-02-28T01:23:56;-0.50;99.90
65536;DHT22;52145;49.342;9.116;2023-02-28T01:26:22;-0.50;99.90
65536;DHT22;52145;49.342;9.116;2023-02-28T01:28:49;-0.50;99.90
65536;DHT22;52145;49.342;9.116;2023-02-28T01:31:15;-0.50;99.90
65536;DHT22;52145;49.342;9.116;2023-02-28T01:33:41;-0.50;99.90
65536;DHT22;52145;49.342;9.116;2023-02-28T01:36:14;-0.40;99.90
65536;DHT22;52145;49.342;9.116;2023-02-28T01:38:40;-0.50;99.90
65536;DHT22;52145;49.342;9.116;2023-02-28T01:41:07;-0.60;99.90
65536;DHT22;52145;49.342;9.116;2023-02-28T01:46:11;-0.70;99.90
65536;DHT22;52145;49.342;9.116;2023-02-28T01:48:46;-0.60;99.90
65536;DHT22;52145;49.342;9.116;2023-02-28T01:51:17;-0.60;99.90
65536;DHT22;52145;49.342;9.116;2023-02-28T01:53:49;-0.70;99.90
65536;DHT22;52145;49.342;9.116;2023-02-28T01:56:20;-0.70;99.90
65536;DHT22;52145;49.342;9.116;2023-02-28T01:58:49;-0.70;99.90
65536;DHT22;52145;49.342;9.116;2023-02-28T02:01:16;-0.70;99.90
65536;DHT22;52145;49.342;9.116;2023-02-28T02:03:50;-0.70;99.90
65536;DHT22;52145;49.342;9.116;2023-02-28T02:06:25;-0.70;99.90
65536;DHT22;52145;49.342;9.116;2023-02-28T02:08:52;-0.80;99.90
65536;DHT22;52145;49.342;9.116;2023-02-28T02:11:20;-0.80;99.90
65536;DHT22;52145;49.342;9.116;2023-02-28T02:14:21;-0.80;99.90
65536;DHT22;52145;49.342;9.116;2023-02-28T02:25:49;-0.80;99.90
65536;DHT22;52145;49.342;9.116;2023-02-28T02:28:40;-0.80;99.90
65536;DHT22;52145;49.342;9.116;2023-02-28T02:37:08;-0.90;99.90
65536;DHT22;52145;49.342;9.116;2023-02-28T02:42:31;-0.90;99.90
65536;DHT22;52145;49.342;9.116;2023-02-28T02:45:03;-0.90;99.90
65536;DHT22;52145;49.342;9.116;2023-02-28T02:47:31;-0.90;99.90
65536;DHT22;52145;49.342;9.116;2023-02-28T02:50:02;-0.90;99.90
65536;DHT22;52145;49.342;9.116;2023-02-28T02:52:35;-1.00;99.90
65536;DHT22;52145;49.342;9.116;2023-02-28T02:55:03;-1.00;99.90
65536;DHT22;52145;49.342;9.116;2023-02-28T02:57:46;-1.00;99.90
65536;DHT22;52145;49.342;9.116;2023-02-28T03:00:15;-1.00;99.90
65536;DHT22;52145;49.342;9.116;2023-02-28T03:02:42;-1.00;99.90
65536;DHT22;52145;49.342;9.116;2023-02-28T03:05:21;-1.00;99.90
65536;DHT22;52145;49.342;9.116;2023-02-28T03:07:48;-1.00;99.90
65536;DHT22;52145;49.342;9.116;2023-02-28T03:10:38;-1.00;99.90
65536;DHT22;52145;49.342;9.116;2023-02-28T03:13:17;-1.00;99.90
65536;DHT22;52145;49.342;9.116;2023-02-28T03:24:52;-1.10;99.90
65536;DHT22;52145;49.342;9.116;2023-02-28T03:27:27;-1.10;99.90
65536;DHT22;52145;49.342;9.116;2023-02-28T03:30:00;-1.10;99.90
65536;DHT22;52145;49.342;9.116;2023-02-28T03:32:55;-1.10;99.90
65536;DHT22;52145;49.342;9.116;2023-02-28T03:35:26;-1.10;99.90
65536;DHT22;52145;49.342;9.116;2023-02-28T03:37:58;-1.00;99.90
65536;DHT22;52145;49.342;9.116;2023-02-28T03:40:28;-1.10;99.90
65536;DHT22;52145;49.342;9.116;2023-02-28T03:43:00;-1.10;99.90
65536;DHT22;52145;49.342;9.116;2023-02-28T03:45:33;-1.20;99.90
65536;DHT22;52145;49.342;9.116;2023-02-28T03:48:12;-1.20;99.90
65536;DHT22;52145;49.342;9.116;2023-02-28T03:50:44;-1.30;99.90
65536;DHT22;52145;49.342;9.116;2023-02-28T03:53:14;-1.30;99.90
65536;DHT22;52145;49.342;9.116;2023-02-28T07:58:58;0.10;99.90
65536;DHT22;52145;49.342;9.116;2023-02-28T08:01:24;0.20;99.90
65536;DHT22;52145;49.342;9.116;2023-02-28T08:03:50;0.30;99.90
65536;DHT22;52145;49.342;9.116;2023-02-28T08:06:21;0.40;99.90
65536;DHT22;52145;49.342;9.116;2023-02-28T08:08:47;0.50;99.90
65536;DHT22;52145;49.342;9.116;2023-02-28T08:13:38;0.50;99.90
65536;DHT22;52145;49.342;9.116;2023-02-28T08:16:04;0.60;99.90
65536;DHT22;52145;49.342;9.116;2023-02-28T08:18:29;0.80;99.90
65536;DHT22;52145;49.342;9.116;2023-02-28T08:20:55;0.90;99.90
65536;DHT22;52145;49.342;9.116;2023-02-28T08:23:21;0.90;99.90
65536;DHT22;52145;49.342;9.116;2023-02-28T08:25:56;1.00;99.90
65536;DHT22;52145;49.342;9.116;2023-02-28T08:28:22;1.10;99.90
65536;DHT22;52145;49.342;9.116;2023-02-28T08:30:48;1.20;99.90
65536;DHT22;52145;49.342;9.116;2023-02-28T08:33:14;1.10;99.90
65536;DHT22;52145;49.342;9.116;2023-02-28T08:35:40;1.20;99.90
65536;DHT22;52145;49.342;9.116;2023-02-28T08:38:05;1.30;99.90
65536;DHT22;52145;49.342;9.116;2023-02-28T08:40:31;1.30;99.90
65536;DHT22;52145;49.342;9.116;2023-02-28T08:42:56;1.30;99.90
65536;DHT22;52145;49.342;9.116;2023-02-28T08:45:22;1.20;99.90
65536;DHT22;52145;49.342;9.116;2023-02-28T08:47:47;1.20;99.90
65536;DHT22;52145;49.342;9.116;2023-02-28T08:50:13;1.20;99.90
65536;DHT22;52145;49.342;9.116;2023-02-28T08:52:42;1.30;99.90
65536;DHT22;52145;49.342;9.116;2023-02-28T08:55:08;1.40;99.90
65536;DHT22;52145;49.342;9.116;2023-02-28T08:57:34;1.50;99.90
65536;DHT22;52145;49.342;9.116;2023-02-28T09:00:00;1.70;99.90
65536;DHT22;52145;49.342;9.116;2023-02-28T09:02:30;1.80;99.90
65536;DHT22;52145;49.342;9.116;2023-02-28T09:04:55;1.80;99.90
65536;DHT22;52145;49.342;9.116;2023-02-28T09:07:21;1.90;99.90
65536;DHT22;52145;49.342;9.116;2023-02-28T09:09:46;1.90;99.90
65536;DHT22;52145;49.342;9.116;2023-02-28T09:12:25;1.90;99.90
65536;DHT22;52145;49.342;9.116;2023-02-28T09:14:51;2.00;99.90
65536;DHT22;52145;49.342;9.116;2023-02-28T09:17:16;2.10;99.90
65536;DHT22;52145;49.342;9.116;2023-02-28T09:19:42;2.20;99.90
65536;DHT22;52145;49.342;9.116;2023-02-28T09:22:09;2.00;99.90
65536;DHT22;52145;49.342;9.116;2023-02-28T09:24:35;2.00;99.90
65536;DHT22;52145;49.342;9.116;2023-02-28T09:27:01;2.30;99.90
65536;DHT22;52145;49.342;9.116;2023-02-28T09:29:27;2.50;99.90
65536;DHT22;52145;49.342;9.116;2023-02-28T09:31:52;2.50;99.90
65536;DHT22;52145;49.342;9.116;2023-02-28T09:44:03;2.90;99.90
65536;DHT22;52145;49.342;9.116;2023-02-28T09:58:52;3.30;99.90
65536;DHT22;52145;49.342;9.116;2023-02-28T10:06:39;3.60;99.90
65536;DHT22;52145;49.342;9.116;2023-02-28T10:11:33;3.80;99.90
65536;DHT22;52145;49.342;9.116;2023-02-28T10:14:27;4.10;99.90
65536;DHT22;52145;49.342;9.116;2023-02-28T10:17:02;4.10;99.90
65536;DHT22;52145;49.342;9.116;2023-02-28T10:19:45;4.10;99.90
65536;DHT22;52145;49.342;9.116;2023-02-28T10:22:19;4.10;99.90
65536;DHT22;52145;49.342;9.116;2023-02-28T10:24:48;4.60;99.90
65536;DHT22;52145;49.342;9.116;2023-02-28T10:27:25;4.70;99.90
65536;DHT22;52145;49.342;9.116;2023-02-28T10:29:52;4.70;99.90
65536;DHT22;52145;49.342;9.116;2023-02-28T10:32:33;4.40;99.90
65536;DHT22;52145;49.342;9.116;2023-02-28T10:35:18;4.30;99.90
65536;DHT22;52145;49.342;9.116;2023-02-28T10:37:47;5.00;99.90
65536;DHT22;52145;49.342;9.116;2023-02-28T10:45:32;5.50;99.90
65536;DHT22;52145;49.342;9.116;2023-02-28T10:56:21;5.90;99.90
65536;DHT22;52145;49.342;9.116;2023-02-28T10:59:02;6.60;99.90
65536;DHT22;52145;49.342;9.116;2023-02-28T11:01:41;6.30;99.90
65536;DHT22;52145;49.342;9.116;2023-02-28T11:07:00;6.70;99.90
65536;DHT22;52145;49.342;9.116;2023-02-28T11:11:55;7.60;99.90
65536;DHT22;52145;49.342;9.116;2023-02-28T11:14:28;8.10;99.90
65536;DHT22;52145;49.342;9.116;2023-02-28T11:16:55;7.40;99.90
65536;DHT22;52145;49.342;9.116;2023-02-28T11:19:26;7.60;99.90
65536;DHT22;52145;49.342;9.116;2023-02-28T11:21:59;7.60;99.90
65536;DHT22;52145;49.342;9.116;2023-02-28T11:24:35;8.20;99.90
65536;DHT22;52145;49.342;9.116;2023-02-28T11:27:02;7.90;99.90
65536;DHT22;52145;49.342;9.116;2023-02-28T11:29:30;7.60;99.90
65536;DHT22;52145;49.342;9.116;2023-02-28T11:32:12;7.90;99.90
65536;DHT22;52145;49.342;9.116;2023-02-28T11:34:39;8.40;99.90
65536;DHT22;52145;49.342;9.116;2023-02-28T11:37:18;8.30;99.90
65536;DHT22;52145;49.342;9.116;2023-02-28T11:39:45;8.10;99.90
65536;DHT22;52145;49.342;9.116;2023-02-28T11:45:49;9.00;99.90
65536;DHT22;52145;49.342;9.116;2023-02-28T11:48:43;8.80;99.90
65536;DHT22;52145;49.342;9.116;2023-02-28T11:51:23;8.40;99.90
65536;DHT22;52145;49.342;9.116;2023-02-28T11:53:58;8.40;99.90
65536;DHT22;52145;49.342;9.116;2023-02-28T11:56:33;8.90;99.90
65536;DHT22;52145;49.342;9.116;2023-02-28T12:02:24;9.60;99.90
65536;DHT22;52145;49.342;9.116;2023-02-28T12:10:23;9.60;99.90
65536;DHT22;52145;49.342;9.116;2023-02-28T12:16:17;8.80;99.90
65536;DHT22;52145;49.342;9.116;2023-02-28T12:18:58;9.60;99.90
65536;DHT22;52145;49.342;9.116;2023-02-28T12:26:44;9.90;99.90
65536;DHT22;52145;49.342;9.116;2023-02-28T12:34:22;10.60;99.60
65536;DHT22;52145;49.342;9.116;2023-02-28T12:36:52;10.20;99.20
65536;DHT22;52145;49.342;9.116;2023-02-28T12:39:26;9.40;99.70
65536;DHT22;52145;49.342;9.116;2023-02-28T12:42:08;9.20;99.80
65536;DHT22;52145;49.342;9.116;2023-02-28T12:44:44;9.00;99.90
65536;DHT22;52145;49.342;9.116;2023-02-28T12:47:15;8.40;99.90
65536;DHT22;52145;49.342;9.116;2023-02-28T12:49:49;7.30;99.90
65536;DHT22;52145;49.342;9.116;2023-02-28T12:53:06;7.10;99.90
65536;DHT22;52145;49.342;9.116;2023-02-28T13:00:32;7.70;99.90
65536;DHT22;52145;49.342;9.116;2023-02-28T13:03:12;7.70;99.90
65536;DHT22;52145;49.342;9.116;2023-02-28T13:08:59;7.30;99.90
65536;DHT22;52145;49.342;9.116;2023-02-28T13:11:31;7.00;99.90
65536;DHT22;52145;49.342;9.116;2023-02-28T13:14:02;7.20;99.90
65536;DHT22;52145;49.342;9.116;2023-02-28T13:16:56;7.20;99.90
65536;DHT22;52145;49.342;9.116;2023-02-28T13:19:25;6.90;99.90
65536;DHT22;52145;49.342;9.116;2023-02-28T13:21:51;6.50;99.90
65536;DHT22;52145;49.342;9.116;2023-02-28T13:27:46;6.70;99.90
65536;DHT22;52145;49.342;9.116;2023-02-28T13:33:36;6.50;99.90
65536;DHT22;52145;49.342;9.116;2023-02-28T13:38:52;7.10;99.90
65536;DHT22;52145;49.342;9.116;2023-02-28T13:44:06;8.60;99.90
65536;DHT22;52145;49.342;9.116;2023-02-28T13:46:35;8.70;99.90
65536;DHT22;52145;49.342;9.116;2023-02-28T13:49:25;8.10;99.90
65536;DHT22;52145;49.342;9.116;2023-02-28T13:54:45;7.70;99.90
65536;DHT22;52145;49.342;9.116;2023-02-28T14:05:31;8.10;99.90
65536;DHT22;52145;49.342;9.116;2023-02-28T14:08:02;8.00;99.90
65536;DHT22;52145;49.342;9.116;2023-02-28T14:10:32;8.50;99.90
65536;DHT22;52145;49.342;9.116;2023-02-28T14:13:01;8.90;99.90
65536;DHT22;52145;49.342;9.116;2023-02-28T14:20:43;9.90;99.50
65536;DHT22;52145;49.342;9.116;2023-02-28T14:23:26;9.00;99.60
65536;DHT22;52145;49.342;9.116;2023-02-28T14:31:45;10.40;99.10
65536;DHT22;52145;49.342;9.116;2023-02-28T14:34:20;10.10;98.90
65536;DHT22;52145;49.342;9.116;2023-02-28T14:36:52;9.60;99.40
65536;DHT22;52145;49.342;9.116;2023-02-28T14:39:22;9.50;99.60
65536;DHT22;52145;49.342;9.116;2023-02-28T14:41:50;10.20;99.10
65536;DHT22;52145;49.342;9.116;2023-02-28T14:46:46;10.20;99.30
65536;DHT22;52145;49.342;9.116;2023-02-28T14:49:20;10.10;99.30
65536;DHT22;52145;49.342;9.116;2023-02-28T14:51:49;9.60;99.30
65536;DHT22;52145;49.342;9.116;2023-02-28T14:54:16;9.60;99.40
65536;DHT22;52145;49.342;9.116;2023-02-28T14:56:43;9.90;99.20
65536;DHT22;52145;49.342;9.116;2023-02-28T14:59:34;10.50;99.20
65536;DHT22;52145;49.342;9.116;2023-02-28T15:05:34;10.50;99.20
65536;DHT22;52145;49.342;9.116;2023-02-28T15:07:48;9.30;99.30
65536;DHT22;52145;49.342;9.116;2023-02-28T15:12:40;8.90;99.70
65536;DHT22;52145;49.342;9.116;2023-02-28T15:15:13;9.70;99.60
65536;DHT22;52145;49.342;9.116;2023-02-28T15:17:39;9.70;99.30
65536;DHT22;52145;49.342;9.116;2023-02-28T15:20:05;9.40;99.40
65536;DHT22;52145;49.342;9.116;2023-02-28T15:22:37;10.00;99.10
65536;DHT22;52145;49.342;9.116;2023-02-28T15:25:04;9.80;99.50
65536;DHT22;52145;49.342;9.116;2023-02-28T15:27:32;9.80;99.30
65536;DHT22;52145;49.342;9.116;2023-02-28T15:30:00;9.10;99.40
65536;DHT22;52145;49.342;9.116;2023-02-28T15:32:38;7.60;99.90
65536;DHT22;52145;49.342;9.116;2023-02-28T15:35:27;7.20;99.90
65536;DHT22;52145;49.342;9.116;2023-02-28T15:37:55;6.70;99.90
65536;DHT22;52145;49.342;9.116;2023-02-28T15:43:11;6.10;99.90
65536;DHT22;52145;49.342;9.116;2023-02-28T15:48:43;5.90;99.90
65536;DHT22;52145;49.342;9.116;2023-02-28T15:51:16;5.90;99.90
65536;DHT22;52145;49.342;9.116;2023-02-28T15:53:54;5.90;99.90
65536;DHT22;52145;49.342;9.116;2023-02-28T15:56:32;6.00;99.90
65536;DHT22;52145;49.342;9.116;2023-02-28T15:59:00;5.80;99.90
65536;DHT22;52145;49.342;9.116;2023-02-28T16:01:34;5.80;99.90
65536;DHT22;52145;49.342;9.116;2023-02-28T16:04:03;5.80;99.90
65536;DHT22;52145;49.342;9.116;2023-02-28T16:08:58;5.40;99.90
65536;DHT22;52145;49.342;9.116;2023-02-28T16:11:23;5.30;99.90
65536;DHT22;52145;49.342;9.116;2023-02-28T16:13:50;5.50;99.90
65536;DHT22;52145;49.342;9.116;2023-02-28T16:16:18;5.40;99.90
65536;DHT22;52145;49.342;9.116;2023-02-28T16:18:44;5.30;99.90
65536;DHT22;52145;49.342;9.116;2023-02-28T16:21:10;5.20;99.90
65536;DHT22;52145;49.342;9.116;2023-02-28T16:23:35;5.20;99.90
65536;DHT22;52145;49.342;9.116;2023-02-28T16:26:03;5.30;99.90
65536;DHT22;52145;49.342;9.116;2023-02-28T16:28:31;5.20;99.90
65536;DHT22;52145;49.342;9.116;2023-02-28T16:31:00;5.00;99.90
65536;DHT22;52145;49.342;9.116;2023-02-28T16:33:28;5.00;99.90
65536;DHT22;52145;49.342;9.116;2023-02-28T16:35:54;5.00;99.90
65536;DHT22;52145;49.342;9.116;2023-02-28T16:38:19;4.90;99.90
65536;DHT22;52145;49.342;9.116;2023-02-28T16:40:45;4.90;99.90
65536;DHT22;52145;49.342;9.116;2023-02-28T16:43:19;4.80;99.90
65536;DHT22;52145;49.342;9.116;2023-02-28T16:45:47;4.80;99.90
65536;DHT22;52145;49.342;9.116;2023-02-28T16:48:15;4.80;99.90
65536;DHT22;52145;49.342;9.116;2023-02-28T16:50:42;4.60;99.90
65536;DHT22;52145;49.342;9.116;2023-02-28T16:53:09;4.70;99.90
65536;DHT22;52145;49.342;9.116;2023-02-28T16:55:35;4.50;99.90
65536;DHT22;52145;49.342;9.116;2023-02-28T16:58:01;4.60;99.90
65536;DHT22;52145;49.342;9.116;2023-02-28T17:00:29;4.50;99.90
65536;DHT22;52145;49.342;9.116;2023-02-28T17:02:55;4.60;99.90
65536;DHT22;52145;49.342;9.116;2023-02-28T17:05:21;4.40;99.90
65536;DHT22;52145;49.342;9.116;2023-02-28T17:07:57;4.30;99.90
65536;DHT22;52145;49.342;9.116;2023-02-28T17:10:26;4.30;99.90
65536;DHT22;52145;49.342;9.116;2023-02-28T17:12:52;4.30;99.90
65536;DHT22;52145;49.342;9.116;2023-02-28T17:15:19;4.20;99.90
65536;DHT22;52145;49.342;9.116;2023-02-28T17:17:45;4.20;99.90
65536;DHT22;52145;49.342;9.116;2023-02-28T17:20:20;4.20;99.90
65536;DHT22;52145;49.342;9.116;2023-02-28T17:22:54;4.10;99.90
65536;DHT22;52145;49.342;9.116;2023-02-28T17:25:20;4.10;99.90
65536;DHT22;52145;49.342;9.116;2023-02-28T17:27:46;3.90;99.90
65536;DHT22;52145;49.342;9.116;2023-02-28T17:30:20;3.90;99.90
65536;DHT22;52145;49.342;9.116;2023-02-28T17:32:46;3.80;99.90
65536;DHT22;52145;49.342;9.116;2023-02-28T17:35:13;3.80;99.90
65536;DHT22;52145;49.342;9.116;2023-02-28T17:37:38;3.70;99.90
65536;DHT22;52145;49.342;9.116;2023-02-28T17:40:05;3.80;99.90
65536;DHT22;52145;49.342;9.116;2023-02-28T17:42:31;3.70;99.90
65536;DHT22;52145;49.342;9.116;2023-02-28T17:44:56;3.70;99.90
65536;DHT22;52145;49.342;9.116;2023-02-28T17:47:22;3.60;99.90
65536;DHT22;52145;49.342;9.116;2023-02-28T17:49:48;3.50;99.90
65536;DHT22;52145;49.342;9.116;2023-02-28T17:52:13;3.50;99.90
65536;DHT22;52145;49.342;9.116;2023-02-28T17:54:39;3.50;99.90
65536;DHT22;52145;49.342;9.116;2023-02-28T17:57:04;3.30;99.90
65536;DHT22;52145;49.342;9.116;2023-02-28T17:59:30;3.30;99.90
65536;DHT22;52145;49.342;9.116;2023-02-28T18:02:00;3.20;99.90
65536;DHT22;52145;49.342;9.116;2023-02-28T18:04:25;3.10;99.90
65536;DHT22;52145;49.342;9.116;2023-02-28T18:06:52;3.00;99.90
65536;DHT22;52145;49.342;9.116;2023-02-28T18:09:22;3.00;99.90
65536;DHT22;52145;49.342;9.116;2023-02-28T18:11:52;2.80;99.90
65536;DHT22;52145;49.342;9.116;2023-02-28T18:14:20;2.80;99.90
65536;DHT22;52145;49.342;9.116;2023-02-28T18:16:47;2.70;99.90
65536;DHT22;52145;49.342;9.116;2023-02-28T18:19:13;2.70;99.90
65536;DHT22;52145;49.342;9.116;2023-02-28T18:21:51;2.60;99.90
65536;DHT22;52145;49.342;9.116;2023-02-28T18:24:19;2.50;99.90
65536;DHT22;52145;49.342;9.116;2023-02-28T18:26:45;2.50;99.90
65536;DHT22;52145;49.342;9.116;2023-02-28T18:29:26;2.50;99.90
65536;DHT22;52145;49.342;9.116;2023-02-28T18:31:53;2.50;99.90
65536;DHT22;52145;49.342;9.116;2023-02-28T18:34:20;2.30;99.90
65536;DHT22;52145;49.342;9.116;2023-02-28T18:36:46;2.40;99.90
65536;DHT22;52145;49.342;9.116;2023-02-28T18:39:13;2.30;99.90
65536;DHT22;52145;49.342;9.116;2023-02-28T18:41:39;2.20;99.90
65536;DHT22;52145;49.342;9.116;2023-02-28T18:44:05;2.20;99.90
65536;DHT22;52145;49.342;9.116;2023-02-28T18:46:31;2.20;99.90
65536;DHT22;52145;49.342;9.116;2023-02-28T18:48:56;2.10;99.90
65536;DHT22;52145;49.342;9.116;2023-02-28T18:51:24;2.10;99.90
65536;DHT22;52145;49.342;9.116;2023-02-28T18:53:50;2.10;99.90
65536;DHT22;52145;49.342;9.116;2023-02-28T18:56:18;2.00;99.90
65536;DHT22;52145;49.342;9.116;2023-02-28T18:58:44;2.00;99.90
65536;DHT22;52145;49.342;9.116;2023-02-28T19:01:15;2.00;99.90
65536;DHT22;52145;49.342;9.116;2023-02-28T19:03:41;1.90;99.90
65536;DHT22;52145;49.342;9.116;2023-02-28T19:06:07;1.80;99.90
65536;DHT22;52145;49.342;9.116;2023-02-28T19:08:33;1.80;99.90
65536;DHT22;52145;49.342;9.116;2023-02-28T19:10:59;1.70;99.90
65536;DHT22;52145;49.342;9.116;2023-02-28T19:13:24;1.60;99.90
65536;DHT22;52145;49.342;9.116;2023-02-28T19:15:50;1.60;99.90
65536;DHT22;52145;49.342;9.116;2023-02-28T19:18:16;1.50;99.90
65536;DHT22;52145;49.342;9.116;2023-02-28T19:20:41;1.50;99.90
65536;DHT22;52145;49.342;9.116;2023-02-28T19:23:07;1.50;99.90
65536;DHT22;52145;49.342;9.116;2023-02-28T19:25:39;1.50;99.90
65536;DHT22;52145;49.342;9.116;2023-02-28T19:28:05;1.50;99.90
65536;DHT22;52145;49.342;9.116;2023-02-28T19:30:31;1.50;99.90
65536;DHT22;52145;49.342;9.116;2023-02-28T19:32:56;1.50;99.90
65536;DHT22;52145;49.342;9.116;2023-02-28T19:35:22;1.50;99.90
65536;DHT22;52145;49.342;9.116;2023-02-28T19:37:47;1.40;99.90
65536;DHT22;52145;49.342;9.116;2023-02-28T19:40:13;1.40;99.90
65536;DHT22;52145;49.342;9.116;2023-02-28T19:42:38;1.30;99.90
65536;DHT22;52145;49.342;9.116;2023-02-28T19:45:04;1.50;99.90
65536;DHT22;52145;49.342;9.116;2023-02-28T19:47:31;1.40;99.90
65536;DHT22;52145;49.342;9.116;2023-02-28T19:49:56;1.40;99.90
65536;DHT22;52145;49.342;9.116;2023-02-28T19:52:23;1.40;99.90
65536;DHT22;52145;49.342;9.116;2023-02-28T19:54:49;1.30;99.90
65536;DHT22;52145;49.342;9.116;2023-02-28T19:57:15;1.20;99.90
65536;DHT22;52145;49.342;9.116;2023-02-28T19:59:41;1.20;99.90
65536;DHT22;52145;49.342;9.116;2023-02-28T20:02:15;1.10;99.90
65536;DHT22;52145;49.342;9.116;2023-02-28T20:04:41;1.10;99.90
65536;DHT22;52145;49.342;9.116;2023-02-28T20:07:07;0.90;99.90
65536;DHT22;52145;49.342;9.116;2023-02-28T20:09:32;0.90;99.90
65536;DHT22;52145;49.342;9.116;2023-02-28T20:11:58;0.90;99.90
65536;DHT22;52145;49.342;9.116;2023-02-28T20:14:24;0.80;99.90
65536;DHT22;52145;49.342;9.116;2023-02-28T20:16:50;0.70;99.90
65536;DHT22;52145;49.342;9.116;2023-02-28T20:19:16;0.70;99.90
65536;DHT22;52145;49.342;9.116;2023-02-28T20:21:43;0.60;99.90
65536;DHT22;52145;49.342;9.116;2023-02-28T20:24:09;0.60;99.90
65536;DHT22;52145;49.342;9.116;2023-02-28T20:26:35;0.70;99.90
65536;DHT22;52145;49.342;9.116;2023-02-28T20:29:01;0.70;99.90
65536;DHT22;52145;49.342;9.116;2023-02-28T20:31:27;0.70;99.90
65536;DHT22;52145;49.342;9.116;2023-02-28T20:33:55;0.80;99.90
65536;DHT22;52145;49.342;9.116;2023-02-28T20:36:20;0.80;99.90
65536;DHT22;52145;49.342;9.116;2023-02-28T20:38:47;0.90;99.90
65536;DHT22;52145;49.342;9.116;2023-02-28T20:41:13;0.80;99.90
65536;DHT22;52145;49.342;9.116;2023-02-28T20:43:39;0.90;99.90
65536;DHT22;52145;49.342;9.116;2023-02-28T20:46:05;0.90;99.90
65536;DHT22;52145;49.342;9.116;2023-02-28T20:48:32;0.80;99.90
65536;DHT22;52145;49.342;9.116;2023-02-28T20:50:58;0.80;99.90
65536;DHT22;52145;49.342;9.116;2023-02-28T20:53:25;0.80;99.90
65536;DHT22;52145;49.342;9.116;2023-02-28T20:55:56;0.80;99.90
65536;DHT22;52145;49.342;9.116;2023-02-28T20:58:23;0.80;99.90
65536;DHT22;52145;49.342;9.116;2023-02-28T21:00:49;0.80;99.90
65536;DHT22;52145;49.342;9.116;2023-02-28T21:03:15;0.90;99.90
65536;DHT22;52145;49.342;9.116;2023-02-28T21:05:40;0.90;99.90
65536;DHT22;52145;49.342;9.116;2023-02-28T21:08:06;0.90;99.90
65536;DHT22;52145;49.342;9.116;2023-02-28T21:10:31;0.90;99.90
65536;DHT22;52145;49.342;9.116;2023-02-28T21:12:57;0.70;99.90
65536;DHT22;52145;49.342;9.116;2023-02-28T21:15:24;0.70;99.90
65536;DHT22;52145;49.342;9.116;2023-02-28T21:17:49;0.70;99.90
65536;DHT22;52145;49.342;9.116;2023-02-28T21:20:15;0.70;99.90
65536;DHT22;52145;49.342;9.116;2023-02-28T21:22:47;0.80;99.90
65536;DHT22;52145;49.342;9.116;2023-02-28T21:25:12;0.70;99.90
65536;DHT22;52145;49.342;9.116;2023-02-28T21:27:39;0.60;99.90
65536;DHT22;52145;49.342;9.116;2023-02-28T21:30:06;0.50;99.90
65536;DHT22;52145;49.342;9.116;2023-02-28T21:32:32;0.60;99.90
65536;DHT22;52145;49.342;9.116;2023-02-28T21:34:57;0.60;99.90
65536;DHT22;52145;49.342;9.116;2023-02-28T21:37:23;0.60;99.90
65536;DHT22;52145;49.342;9.116;2023-02-28T21:39:49;0.50;99.90
65536;DHT22;52145;49.342;9.116;2023-02-28T21:42:15;0.50;99.90
65536;DHT22;52145;49.342;9.116;2023-02-28T21:44:40;0.50;99.90
65536;DHT22;52145;49.342;9.116;2023-02-28T21:47:06;0.50;99.90
65536;DHT22;52145;49.342;9.116;2023-02-28T21:49:31;0.60;99.90
65536;DHT22;52145;49.342;9.116;2023-02-28T21:51:57;0.50;99.90
65536;DHT22;52145;49.342;9.116;2023-02-28T21:54:23;0.60;99.90
65536;DHT22;52145;49.342;9.116;2023-02-28T21:56:49;0.60;99.90
65536;DHT22;52145;49.342;9.116;2023-02-28T21:59:17;0.40;99.90
65536;DHT22;52145;49.342;9.116;2023-02-28T22:01:43;0.60;99.90
65536;DHT22;52145;49.342;9.116;2023-02-28T22:04:14;0.60;99.90
65536;DHT22;52145;49.342;9.116;2023-02-28T22:06:46;0.60;99.90
65536;DHT22;52145;49.342;9.116;2023-02-28T22:09:12;0.50;99.90
65536;DHT22;52145;49.342;9.116;2023-02-28T22:11:38;0.60;99.90
65536;DHT22;52145;49.342;9.116;2023-02-28T22:14:04;0.50;99.90
65536;DHT22;52145;49.342;9.116;2023-02-28T22:16:31;0.70;99.90
65536;DHT22;52145;49.342;9.116;2023-02-28T22:18:58;0.60;99.90
65536;DHT22;52145;49.342;9.116;2023-02-28T22:21:24;0.60;99.90
65536;DHT22;52145;49.342;9.116;2023-02-28T22:23:50;0.60;99.90
65536;DHT22;52145;49.342;9.116;2023-02-28T22:26:21;0.50;99.90
65536;DHT22;52145;49.342;9.116;2023-02-28T22:28:47;0.40;99.90
65536;DHT22;52145;49.342;9.116;2023-02-28T22:31:25;0.50;99.90
65536;DHT22;52145;49.342;9.116;2023-02-28T22:33:54;0.40;99.90
65536;DHT22;52145;49.342;9.116;2023-02-28T22:36:20;0.50;99.90
65536;DHT22;52145;49.342;9.116;2023-02-28T22:38:47;0.40;99.90
65536;DHT22;52145;49.342;9.116;2023-02-28T22:41:13;0.30;99.90
65536;DHT22;52145;49.342;9.116;2023-02-28T22:43:40;0.30;99.90
65536;DHT22;52145;49.342;9.116;2023-02-28T22:46:07;0.30;99.90
65536;DHT22;52145;49.342;9.116;2023-02-28T22:48:34;0.30;99.90